| time (UTC) | temp F | wind direction | speed knots | gust knots | rain 1hr in | rain 24hr in | rain mn in | humidity % | barometer mb |
| 20260509090015 | 41 | 90 | 3.5 | 6.1 | 0.00 | 0.05 | 0.00 | 88 | 1007.0 |
| 20260509083017 | 40 | 90 | 2.6 | 6.1 | 0.00 | 0.05 | 0.00 | 90 | 1007.3 |
| 20260509080017 | 38 | 67 | 1.7 | 5.2 | 0.00 | 0.05 | 0.00 | 92 | 1007.5 |
| 20260509073017 | 39 | 67 | 1.7 | 3.5 | 0.00 | 0.05 | 0.00 | 90 | 1007.8 |
| 20260509070017 | 39 | 67 | 1.7 | 4.3 | 0.00 | 0.05 | 0.00 | 90 | 1008.0 |
| 20260509063018 | 40 | 67 | 1.7 | 3.5 | 0.00 | 0.05 | 0.00 | 89 | 1008.3 |
| 20260509060016 | 41 | 67 | 1.7 | 3.5 | 0.00 | 0.05 | 0.00 | 90 | 1008.6 |
| 20260509053016 | 41 | 67 | 1.7 | 3.5 | 0.00 | 0.05 | 0.00 | 90 | 1008.9 |
| 20260509050016 | 41 | 67 | 2.6 | 3.5 | 0.00 | 0.05 | 0.00 | 92 | 1009.0 |
| 20260509043016 | 41 | 45 | 0.9 | 2.6 | 0.00 | 0.05 | 0.00 | 90 | 1009.3 |
| 20260509040036 | 41 | 45 | 1.7 | 2.6 | 0.00 | 0.05 | 0.00 | 89 | 1009.4 |
| 20260509033016 | 42 | 45 | 0.9 | 2.6 | 0.00 | 0.05 | 0.05 | 88 | 1009.4 |
| 20260509030017 | 43 | 0.0 | 2.6 | 0.00 | 0.05 | 0.05 | 85 | 1009.6 | |
| 20260509023016 | 44 | 0.0 | 0.0 | 0.00 | 0.05 | 0.05 | 84 | 1009.6 | |
| 20260509020016 | 45 | 0.0 | 0.0 | 0.00 | 0.05 | 0.05 | 81 | 1009.6 | |
| 20260509013015 | 47 | 0.0 | 0.0 | 0.00 | 0.05 | 0.05 | 78 | 1009.5 | |
| 20260509010016 | 49 | 0.0 | 1.7 | 0.00 | 0.05 | 0.05 | 75 | 1009.1 | |
| 20260509003035 | 51 | 22 | 0.9 | 2.6 | 0.00 | 0.05 | 0.05 | 75 | 1008.8 |
| 20260509000055 | 52 | 22 | 1.7 | 3.5 | 0.00 | 0.05 | 0.05 | 66 | 1008.8 |
| 20260508233017 | 53 | 22 | 2.6 | 5.2 | 0.00 | 0.05 | 0.05 | 62 | 1008.5 |
| 20260508230015 | 54 | 22 | 1.7 | 6.1 | 0.00 | 0.05 | 0.05 | 56 | 1008.5 |
| 20260508223015 | 55 | 45 | 1.7 | 6.1 | 0.00 | 0.05 | 0.05 | 53 | 1008.5 |
| 20260508220016 | 57 | 22 | 1.7 | 7.0 | 0.00 | 0.05 | 0.05 | 48 | 1008.6 |
| 20260508213015 | 57 | 22 | 2.6 | 7.8 | 0.00 | 0.05 | 0.05 | 52 | 1008.7 |
| 20260508210015 | 57 | 22 | 1.7 | 7.8 | 0.00 | 0.05 | 0.05 | 49 | 1008.9 |
| 20260508203037 | 57 | 337 | 1.7 | 6.1 | 0.00 | 0.05 | 0.05 | 55 | 1009.2 |
| 20260508200038 | 58 | 0 | 1.7 | 9.6 | 0.00 | 0.05 | 0.05 | 50 | 1009.3 |
| 20260508193016 | 58 | 225 | 3.5 | 9.6 | 0.00 | 0.05 | 0.05 | 47 | 1009.7 |
| 20260508190017 | 58 | 247 | 2.6 | 7.8 | 0.00 | 0.05 | 0.05 | 51 | 1009.9 |
| 20260508183017 | 56 | 247 | 2.6 | 8.7 | 0.00 | 0.05 | 0.05 | 58 | 1009.9 |
| 20260508180017 | 55 | 225 | 3.5 | 13.9 | 0.00 | 0.05 | 0.05 | 60 | 1010.2 |
| 20260508173036 | 55 | 247 | 2.6 | 8.7 | 0.00 | 0.05 | 0.05 | 56 | 1010.4 |
| 20260508170016 | 53 | 247 | 3.5 | 11.3 | 0.00 | 0.05 | 0.05 | 62 | 1010.7 |
| 20260508163058 | 52 | 225 | 3.5 | 8.7 | 0.00 | 0.05 | 0.05 | 70 | 1011.1 |
| 20260508160016 | 50 | 270 | 2.6 | 7.0 | 0.00 | 0.05 | 0.05 | 74 | 1011.2 |
| 20260508153016 | 49 | 225 | 2.6 | 10.4 | 0.00 | 0.05 | 0.05 | 81 | 1011.1 |
| 20260508150036 | 47 | 202 | 4.3 | 9.6 | 0.00 | 0.05 | 0.05 | 86 | 1011.0 |
| 20260508143016 | 44 | 225 | 3.5 | 7.8 | 0.01 | 0.05 | 0.05 | 93 | 1010.9 |
| 20260508140016 | 42 | 315 | 1.7 | 7.8 | 0.01 | 0.05 | 0.05 | 94 | 1011.3 |
| 20260508133016 | 42 | 270 | 1.7 | 7.0 | 0.03 | 0.04 | 0.04 | 95 | 1011.3 |
| 20260508130018 | 42 | 315 | 1.7 | 9.6 | 0.03 | 0.04 | 0.04 | 95 | 1011.2 |
| 20260508123016 | 42 | 0.0 | 0.0 | 0.00 | 0.01 | 0.01 | 96 | 1011.0 | |
| 20260508120036 | 42 | 292 | 0.9 | 2.6 | 0.00 | 0.01 | 0.01 | 96 | 1010.4 |
| 20260508113016 | 41 | 0.0 | 1.7 | 0.01 | 0.01 | 0.01 | 96 | 1010.0 | |
| 20260508110015 | 40 | 0.0 | 0.0 | 0.01 | 0.01 | 0.01 | 96 | 1009.7 | |
| 20260508103015 | 39 | 0.0 | 0.0 | 0.00 | 0.00 | 0.00 | 95 | 1009.8 | |
| 20260508100015 | 39 | 0.0 | 0.0 | 0.00 | 0.00 | 0.00 | 95 | 1009.9 | |
| 20260508093057 | 38 | 0.0 | 1.7 | 0.00 | 0.00 | 0.00 | 94 | 1010.1 |